sensor_id;sensor_type;location;lat;lon;timestamp;P1;durP1;ratioP1;P2;durP2;ratioP2
6394;SDS011;3230;42.588;23.358;2023-05-28T00:02:11;6.30;;;4.80;;
6394;SDS011;3230;42.588;23.358;2023-05-28T00:04:36;6.20;;;4.50;;
6394;SDS011;3230;42.588;23.358;2023-05-28T00:07:02;8.20;;;4.50;;
6394;SDS011;3230;42.588;23.358;2023-05-28T00:09:27;5.33;;;4.80;;
6394;SDS011;3230;42.588;23.358;2023-05-28T00:11:52;6.80;;;4.17;;
6394;SDS011;3230;42.588;23.358;2023-05-28T00:14:18;8.40;;;5.37;;
6394;SDS011;3230;42.588;23.358;2023-05-28T00:16:44;7.20;;;5.50;;
6394;SDS011;3230;42.588;23.358;2023-05-28T00:19:10;7.00;;;4.60;;
6394;SDS011;3230;42.588;23.358;2023-05-28T00:21:36;6.00;;;4.60;;
6394;SDS011;3230;42.588;23.358;2023-05-28T00:24:02;8.97;;;5.73;;
6394;SDS011;3230;42.588;23.358;2023-05-28T00:26:28;15.83;;;6.60;;
6394;SDS011;3230;42.588;23.358;2023-05-28T00:28:54;12.07;;;7.30;;
6394;SDS011;3230;42.588;23.358;2023-05-28T00:31:20;12.50;;;7.80;;
6394;SDS011;3230;42.588;23.358;2023-05-28T00:33:45;13.73;;;6.50;;
6394;SDS011;3230;42.588;23.358;2023-05-28T00:36:14;8.13;;;5.87;;
6394;SDS011;3230;42.588;23.358;2023-05-28T00:38:40;6.23;;;5.13;;
6394;SDS011;3230;42.588;23.358;2023-05-28T00:41:05;7.67;;;5.47;;
6394;SDS011;3230;42.588;23.358;2023-05-28T00:43:31;10.50;;;4.90;;
6394;SDS011;3230;42.588;23.358;2023-05-28T00:45:58;5.07;;;4.30;;
6394;SDS011;3230;42.588;23.358;2023-05-28T00:48:26;7.50;;;4.63;;
6394;SDS011;3230;42.588;23.358;2023-05-28T00:50:53;6.40;;;5.00;;
6394;SDS011;3230;42.588;23.358;2023-05-28T00:53:18;5.90;;;4.87;;
6394;SDS011;3230;42.588;23.358;2023-05-28T00:55:44;6.60;;;5.30;;
6394;SDS011;3230;42.588;23.358;2023-05-28T00:58:10;6.20;;;4.87;;
6394;SDS011;3230;42.588;23.358;2023-05-28T01:00:36;6.30;;;4.47;;
6394;SDS011;3230;42.588;23.358;2023-05-28T01:03:03;5.83;;;4.70;;
6394;SDS011;3230;42.588;23.358;2023-05-28T01:05:29;8.43;;;4.80;;
6394;SDS011;3230;42.588;23.358;2023-05-28T01:07:59;6.70;;;4.90;;
6394;SDS011;3230;42.588;23.358;2023-05-28T01:10:26;7.40;;;5.00;;
6394;SDS011;3230;42.588;23.358;2023-05-28T01:12:52;7.40;;;5.37;;
6394;SDS011;3230;42.588;23.358;2023-05-28T01:15:19;7.50;;;5.40;;
6394;SDS011;3230;42.588;23.358;2023-05-28T01:17:45;8.13;;;5.20;;
6394;SDS011;3230;42.588;23.358;2023-05-28T01:20:13;7.60;;;5.23;;
6394;SDS011;3230;42.588;23.358;2023-05-28T01:22:39;9.60;;;5.50;;
6394;SDS011;3230;42.588;23.358;2023-05-28T01:25:11;9.00;;;5.30;;
6394;SDS011;3230;42.588;23.358;2023-05-28T01:27:40;8.77;;;5.63;;
6394;SDS011;3230;42.588;23.358;2023-05-28T01:30:06;7.77;;;5.43;;
6394;SDS011;3230;42.588;23.358;2023-05-28T01:32:37;9.00;;;5.10;;
6394;SDS011;3230;42.588;23.358;2023-05-28T01:35:06;8.60;;;4.90;;
6394;SDS011;3230;42.588;23.358;2023-05-28T01:37:35;8.23;;;5.00;;
6394;SDS011;3230;42.588;23.358;2023-05-28T01:40:03;7.80;;;5.37;;
6394;SDS011;3230;42.588;23.358;2023-05-28T01:42:30;9.07;;;5.43;;
6394;SDS011;3230;42.588;23.358;2023-05-28T01:44:58;6.77;;;5.57;;
6394;SDS011;3230;42.588;23.358;2023-05-28T01:47:24;8.90;;;5.40;;
6394;SDS011;3230;42.588;23.358;2023-05-28T01:49:51;6.43;;;4.90;;
6394;SDS011;3230;42.588;23.358;2023-05-28T01:52:16;6.50;;;5.40;;
6394;SDS011;3230;42.588;23.358;2023-05-28T01:54:42;8.50;;;5.37;;
6394;SDS011;3230;42.588;23.358;2023-05-28T01:57:07;8.30;;;5.60;;
6394;SDS011;3230;42.588;23.358;2023-05-28T01:59:33;7.97;;;5.17;;
6394;SDS011;3230;42.588;23.358;2023-05-28T02:01:58;10.57;;;5.60;;
6394;SDS011;3230;42.588;23.358;2023-05-28T02:04:24;5.67;;;4.93;;
6394;SDS011;3230;42.588;23.358;2023-05-28T02:06:50;5.97;;;4.33;;
6394;SDS011;3230;42.588;23.358;2023-05-28T02:09:16;6.70;;;4.93;;
6394;SDS011;3230;42.588;23.358;2023-05-28T02:11:42;6.73;;;5.30;;
6394;SDS011;3230;42.588;23.358;2023-05-28T02:14:07;11.90;;;5.73;;
6394;SDS011;3230;42.588;23.358;2023-05-28T02:16:34;6.17;;;4.77;;
6394;SDS011;3230;42.588;23.358;2023-05-28T02:19:00;9.30;;;5.57;;
6394;SDS011;3230;42.588;23.358;2023-05-28T02:21:26;12.70;;;6.37;;
6394;SDS011;3230;42.588;23.358;2023-05-28T02:23:53;6.63;;;4.80;;
6394;SDS011;3230;42.588;23.358;2023-05-28T02:26:18;7.53;;;5.07;;
6394;SDS011;3230;42.588;23.358;2023-05-28T02:28:45;6.23;;;5.10;;
6394;SDS011;3230;42.588;23.358;2023-05-28T02:31:11;7.30;;;5.40;;
6394;SDS011;3230;42.588;23.358;2023-05-28T02:33:38;7.50;;;5.10;;
6394;SDS011;3230;42.588;23.358;2023-05-28T02:36:04;18.03;;;6.50;;
6394;SDS011;3230;42.588;23.358;2023-05-28T02:38:31;9.67;;;5.60;;
6394;SDS011;3230;42.588;23.358;2023-05-28T02:40:57;5.20;;;4.23;;
6394;SDS011;3230;42.588;23.358;2023-05-28T02:43:22;6.43;;;4.83;;
6394;SDS011;3230;42.588;23.358;2023-05-28T02:45:48;8.07;;;4.90;;
6394;SDS011;3230;42.588;23.358;2023-05-28T02:48:13;10.00;;;5.40;;
6394;SDS011;3230;42.588;23.358;2023-05-28T02:50:39;5.97;;;4.73;;
6394;SDS011;3230;42.588;23.358;2023-05-28T02:53:04;7.07;;;5.00;;
6394;SDS011;3230;42.588;23.358;2023-05-28T02:55:30;9.40;;;4.83;;
6394;SDS011;3230;42.588;23.358;2023-05-28T02:57:55;6.50;;;4.60;;
6394;SDS011;3230;42.588;23.358;2023-05-28T03:00:21;7.30;;;5.00;;
6394;SDS011;3230;42.588;23.358;2023-05-28T03:02:46;6.93;;;4.80;;
6394;SDS011;3230;42.588;23.358;2023-05-28T03:05:12;8.10;;;5.17;;
6394;SDS011;3230;42.588;23.358;2023-05-28T03:07:38;7.17;;;5.40;;
6394;SDS011;3230;42.588;23.358;2023-05-28T03:10:04;8.10;;;5.60;;
6394;SDS011;3230;42.588;23.358;2023-05-28T03:12:30;12.80;;;5.90;;
6394;SDS011;3230;42.588;23.358;2023-05-28T03:14:55;7.83;;;5.77;;
6394;SDS011;3230;42.588;23.358;2023-05-28T03:17:21;7.60;;;5.73;;
6394;SDS011;3230;42.588;23.358;2023-05-28T03:19:46;8.83;;;5.77;;
6394;SDS011;3230;42.588;23.358;2023-05-28T03:22:12;11.40;;;6.13;;
6394;SDS011;3230;42.588;23.358;2023-05-28T03:24:37;10.53;;;6.50;;
6394;SDS011;3230;42.588;23.358;2023-05-28T03:27:04;8.90;;;5.80;;
6394;SDS011;3230;42.588;23.358;2023-05-28T03:29:30;10.40;;;6.43;;
6394;SDS011;3230;42.588;23.358;2023-05-28T03:31:56;11.00;;;5.80;;
6394;SDS011;3230;42.588;23.358;2023-05-28T03:34:21;7.77;;;5.80;;
6394;SDS011;3230;42.588;23.358;2023-05-28T03:36:48;8.10;;;5.80;;
6394;SDS011;3230;42.588;23.358;2023-05-28T03:39:14;6.60;;;5.60;;
6394;SDS011;3230;42.588;23.358;2023-05-28T03:41:40;7.23;;;5.73;;
6394;SDS011;3230;42.588;23.358;2023-05-28T03:44:05;10.50;;;6.97;;
6394;SDS011;3230;42.588;23.358;2023-05-28T03:46:32;8.73;;;6.87;;
6394;SDS011;3230;42.588;23.358;2023-05-28T03:48:58;9.93;;;6.77;;
6394;SDS011;3230;42.588;23.358;2023-05-28T03:51:23;8.37;;;6.00;;
6394;SDS011;3230;42.588;23.358;2023-05-28T03:53:49;9.90;;;6.07;;
6394;SDS011;3230;42.588;23.358;2023-05-28T03:56:15;9.53;;;6.70;;
6394;SDS011;3230;42.588;23.358;2023-05-28T03:58:41;10.80;;;6.57;;
6394;SDS011;3230;42.588;23.358;2023-05-28T04:01:07;8.27;;;5.97;;
6394;SDS011;3230;42.588;23.358;2023-05-28T04:03:32;9.60;;;6.50;;
6394;SDS011;3230;42.588;23.358;2023-05-28T04:05:59;8.80;;;6.60;;
6394;SDS011;3230;42.588;23.358;2023-05-28T04:08:25;8.10;;;6.07;;
6394;SDS011;3230;42.588;23.358;2023-05-28T04:10:51;12.20;;;6.03;;
6394;SDS011;3230;42.588;23.358;2023-05-28T04:13:16;8.50;;;6.10;;
6394;SDS011;3230;42.588;23.358;2023-05-28T04:15:42;9.60;;;6.13;;
6394;SDS011;3230;42.588;23.358;2023-05-28T04:18:07;8.60;;;6.47;;
6394;SDS011;3230;42.588;23.358;2023-05-28T04:20:33;12.13;;;7.10;;
6394;SDS011;3230;42.588;23.358;2023-05-28T04:23:00;7.63;;;5.90;;
6394;SDS011;3230;42.588;23.358;2023-05-28T04:25:26;8.60;;;6.47;;
6394;SDS011;3230;42.588;23.358;2023-05-28T04:27:52;10.07;;;5.87;;
6394;SDS011;3230;42.588;23.358;2023-05-28T04:30:17;11.13;;;6.67;;
6394;SDS011;3230;42.588;23.358;2023-05-28T04:32:43;8.17;;;5.33;;
6394;SDS011;3230;42.588;23.358;2023-05-28T04:35:08;9.67;;;6.10;;
6394;SDS011;3230;42.588;23.358;2023-05-28T04:37:34;11.20;;;6.33;;
6394;SDS011;3230;42.588;23.358;2023-05-28T04:40:02;10.00;;;5.57;;
6394;SDS011;3230;42.588;23.358;2023-05-28T04:42:28;8.23;;;6.30;;
6394;SDS011;3230;42.588;23.358;2023-05-28T04:44:53;8.60;;;5.90;;
6394;SDS011;3230;42.588;23.358;2023-05-28T04:47:19;11.80;;;7.17;;
6394;SDS011;3230;42.588;23.358;2023-05-28T04:49:44;9.40;;;6.77;;
6394;SDS011;3230;42.588;23.358;2023-05-28T04:52:10;8.80;;;6.13;;
6394;SDS011;3230;42.588;23.358;2023-05-28T04:54:35;8.63;;;6.60;;
6394;SDS011;3230;42.588;23.358;2023-05-28T04:57:01;12.23;;;6.77;;
6394;SDS011;3230;42.588;23.358;2023-05-28T04:59:27;13.07;;;6.37;;
6394;SDS011;3230;42.588;23.358;2023-05-28T05:01:53;9.37;;;7.10;;
6394;SDS011;3230;42.588;23.358;2023-05-28T05:04:18;10.70;;;6.83;;
6394;SDS011;3230;42.588;23.358;2023-05-28T05:06:44;9.63;;;6.83;;
6394;SDS011;3230;42.588;23.358;2023-05-28T05:09:09;13.33;;;7.50;;
6394;SDS011;3230;42.588;23.358;2023-05-28T05:11:35;24.27;;;16.83;;
6394;SDS011;3230;42.588;23.358;2023-05-28T05:14:00;21.80;;;14.87;;
6394;SDS011;3230;42.588;23.358;2023-05-28T05:16:26;19.40;;;15.07;;
6394;SDS011;3230;42.588;23.358;2023-05-28T05:18:52;18.70;;;14.00;;
6394;SDS011;3230;42.588;23.358;2023-05-28T05:21:17;12.00;;;7.50;;
6394;SDS011;3230;42.588;23.358;2023-05-28T05:23:43;14.50;;;9.20;;
6394;SDS011;3230;42.588;23.358;2023-05-28T05:26:08;11.77;;;8.53;;
6394;SDS011;3230;42.588;23.358;2023-05-28T05:28:35;17.03;;;8.70;;
6394;SDS011;3230;42.588;23.358;2023-05-28T05:31:01;17.30;;;9.40;;
6394;SDS011;3230;42.588;23.358;2023-05-28T05:33:26;14.00;;;7.53;;
6394;SDS011;3230;42.588;23.358;2023-05-28T05:35:52;10.00;;;6.43;;
6394;SDS011;3230;42.588;23.358;2023-05-28T05:38:17;8.57;;;6.37;;
6394;SDS011;3230;42.588;23.358;2023-05-28T05:40:43;9.83;;;6.17;;
6394;SDS011;3230;42.588;23.358;2023-05-28T05:43:09;9.57;;;6.47;;
6394;SDS011;3230;42.588;23.358;2023-05-28T05:45:34;9.00;;;6.77;;
6394;SDS011;3230;42.588;23.358;2023-05-28T05:48:00;16.63;;;6.70;;
6394;SDS011;3230;42.588;23.358;2023-05-28T05:50:26;12.00;;;7.30;;
6394;SDS011;3230;42.588;23.358;2023-05-28T05:52:51;13.03;;;6.13;;
6394;SDS011;3230;42.588;23.358;2023-05-28T05:55:16;6.43;;;5.20;;
6394;SDS011;3230;42.588;23.358;2023-05-28T05:57:42;9.00;;;6.40;;
6394;SDS011;3230;42.588;23.358;2023-05-28T06:00:08;8.07;;;5.63;;
6394;SDS011;3230;42.588;23.358;2023-05-28T06:02:35;8.50;;;6.17;;
6394;SDS011;3230;42.588;23.358;2023-05-28T06:05:04;8.80;;;6.00;;
6394;SDS011;3230;42.588;23.358;2023-05-28T06:07:31;7.60;;;5.40;;
6394;SDS011;3230;42.588;23.358;2023-05-28T06:09:56;9.33;;;5.60;;
6394;SDS011;3230;42.588;23.358;2023-05-28T06:12:22;8.13;;;4.97;;
6394;SDS011;3230;42.588;23.358;2023-05-28T06:14:47;7.17;;;4.20;;
6394;SDS011;3230;42.588;23.358;2023-05-28T06:17:14;5.73;;;4.60;;
6394;SDS011;3230;42.588;23.358;2023-05-28T06:19:39;6.03;;;4.70;;
6394;SDS011;3230;42.588;23.358;2023-05-28T06:22:06;6.07;;;4.47;;
6394;SDS011;3230;42.588;23.358;2023-05-28T06:24:31;6.63;;;4.67;;
6394;SDS011;3230;42.588;23.358;2023-05-28T06:26:57;7.27;;;5.07;;
6394;SDS011;3230;42.588;23.358;2023-05-28T06:29:22;9.13;;;4.73;;
6394;SDS011;3230;42.588;23.358;2023-05-28T06:31:48;8.63;;;5.53;;
6394;SDS011;3230;42.588;23.358;2023-05-28T06:34:13;12.20;;;5.80;;
6394;SDS011;3230;42.588;23.358;2023-05-28T06:36:39;6.13;;;4.93;;
6394;SDS011;3230;42.588;23.358;2023-05-28T06:39:04;7.07;;;5.03;;
6394;SDS011;3230;42.588;23.358;2023-05-28T06:41:30;8.33;;;5.40;;
6394;SDS011;3230;42.588;23.358;2023-05-28T06:43:55;6.00;;;5.07;;
6394;SDS011;3230;42.588;23.358;2023-05-28T06:46:21;6.37;;;5.27;;
6394;SDS011;3230;42.588;23.358;2023-05-28T06:48:46;13.03;;;5.47;;
6394;SDS011;3230;42.588;23.358;2023-05-28T06:51:12;10.00;;;5.20;;
6394;SDS011;3230;42.588;23.358;2023-05-28T06:53:37;8.03;;;5.73;;
6394;SDS011;3230;42.588;23.358;2023-05-28T06:56:07;10.67;;;5.90;;
6394;SDS011;3230;42.588;23.358;2023-05-28T06:58:33;10.60;;;5.50;;
6394;SDS011;3230;42.588;23.358;2023-05-28T07:00:58;9.20;;;5.80;;
6394;SDS011;3230;42.588;23.358;2023-05-28T07:03:26;7.53;;;5.00;;
6394;SDS011;3230;42.588;23.358;2023-05-28T07:05:52;6.87;;;4.87;;
6394;SDS011;3230;42.588;23.358;2023-05-28T07:08:17;6.67;;;5.00;;
6394;SDS011;3230;42.588;23.358;2023-05-28T07:10:43;6.70;;;5.40;;
6394;SDS011;3230;42.588;23.358;2023-05-28T07:13:08;6.57;;;5.07;;
6394;SDS011;3230;42.588;23.358;2023-05-28T07:15:33;6.90;;;4.83;;
6394;SDS011;3230;42.588;23.358;2023-05-28T07:17:59;9.57;;;4.97;;
6394;SDS011;3230;42.588;23.358;2023-05-28T07:20:26;8.47;;;5.37;;
6394;SDS011;3230;42.588;23.358;2023-05-28T07:22:52;6.40;;;5.00;;
6394;SDS011;3230;42.588;23.358;2023-05-28T07:25:17;7.97;;;5.20;;
6394;SDS011;3230;42.588;23.358;2023-05-28T07:27:42;6.63;;;5.00;;
6394;SDS011;3230;42.588;23.358;2023-05-28T07:30:08;6.93;;;5.20;;
6394;SDS011;3230;42.588;23.358;2023-05-28T07:32:34;10.60;;;5.50;;
6394;SDS011;3230;42.588;23.358;2023-05-28T07:34:59;7.27;;;5.47;;
6394;SDS011;3230;42.588;23.358;2023-05-28T07:37:25;8.50;;;5.97;;
6394;SDS011;3230;42.588;23.358;2023-05-28T07:39:50;10.87;;;6.00;;
6394;SDS011;3230;42.588;23.358;2023-05-28T07:42:15;7.77;;;5.23;;
6394;SDS011;3230;42.588;23.358;2023-05-28T07:44:41;7.60;;;4.27;;
6394;SDS011;3230;42.588;23.358;2023-05-28T07:47:06;7.27;;;4.10;;
6394;SDS011;3230;42.588;23.358;2023-05-28T07:49:32;7.50;;;5.10;;
6394;SDS011;3230;42.588;23.358;2023-05-28T07:51:57;6.33;;;4.20;;
6394;SDS011;3230;42.588;23.358;2023-05-28T07:54:23;4.70;;;4.00;;
6394;SDS011;3230;42.588;23.358;2023-05-28T07:56:48;6.50;;;4.40;;
6394;SDS011;3230;42.588;23.358;2023-05-28T07:59:14;5.17;;;3.53;;
6394;SDS011;3230;42.588;23.358;2023-05-28T08:01:39;4.27;;;3.70;;
6394;SDS011;3230;42.588;23.358;2023-05-28T08:04:05;4.27;;;3.50;;
6394;SDS011;3230;42.588;23.358;2023-05-28T08:06:31;5.70;;;3.30;;
6394;SDS011;3230;42.588;23.358;2023-05-28T08:08:57;4.67;;;3.53;;
6394;SDS011;3230;42.588;23.358;2023-05-28T08:11:23;5.00;;;3.87;;
6394;SDS011;3230;42.588;23.358;2023-05-28T08:13:49;5.83;;;3.60;;
6394;SDS011;3230;42.588;23.358;2023-05-28T08:16:14;6.87;;;4.30;;
6394;SDS011;3230;42.588;23.358;2023-05-28T08:18:40;6.10;;;4.13;;
6394;SDS011;3230;42.588;23.358;2023-05-28T08:21:05;7.30;;;4.93;;
6394;SDS011;3230;42.588;23.358;2023-05-28T08:23:32;4.93;;;3.50;;
6394;SDS011;3230;42.588;23.358;2023-05-28T08:26:02;6.93;;;4.53;;
6394;SDS011;3230;42.588;23.358;2023-05-28T08:28:27;5.90;;;4.37;;
6394;SDS011;3230;42.588;23.358;2023-05-28T08:30:53;6.50;;;3.87;;
6394;SDS011;3230;42.588;23.358;2023-05-28T08:33:18;8.83;;;4.67;;
6394;SDS011;3230;42.588;23.358;2023-05-28T08:35:44;6.70;;;4.50;;
6394;SDS011;3230;42.588;23.358;2023-05-28T08:38:10;8.60;;;4.70;;
6394;SDS011;3230;42.588;23.358;2023-05-28T08:40:37;6.63;;;4.40;;
6394;SDS011;3230;42.588;23.358;2023-05-28T08:43:08;6.97;;;4.60;;
6394;SDS011;3230;42.588;23.358;2023-05-28T08:45:34;6.43;;;3.87;;
6394;SDS011;3230;42.588;23.358;2023-05-28T08:48:02;6.23;;;4.23;;
6394;SDS011;3230;42.588;23.358;2023-05-28T08:50:30;5.30;;;3.97;;
6394;SDS011;3230;42.588;23.358;2023-05-28T08:52:56;7.20;;;4.73;;
6394;SDS011;3230;42.588;23.358;2023-05-28T08:55:24;9.27;;;5.33;;
6394;SDS011;3230;42.588;23.358;2023-05-28T08:57:49;6.33;;;4.40;;
6394;SDS011;3230;42.588;23.358;2023-05-28T09:00:17;11.27;;;5.40;;
6394;SDS011;3230;42.588;23.358;2023-05-28T09:02:43;5.17;;;4.23;;
6394;SDS011;3230;42.588;23.358;2023-05-28T09:05:09;9.60;;;4.53;;
6394;SDS011;3230;42.588;23.358;2023-05-28T09:07:35;7.50;;;4.00;;
6394;SDS011;3230;42.588;23.358;2023-05-28T09:10:02;8.13;;;4.87;;
6394;SDS011;3230;42.588;23.358;2023-05-28T09:12:28;5.93;;;4.47;;
6394;SDS011;3230;42.588;23.358;2023-05-28T09:14:53;6.60;;;5.03;;
6394;SDS011;3230;42.588;23.358;2023-05-28T09:20:17;7.73;;;4.43;;
6394;SDS011;3230;42.588;23.358;2023-05-28T09:22:43;6.77;;;4.80;;
6394;SDS011;3230;42.588;23.358;2023-05-28T09:25:08;6.17;;;4.30;;
6394;SDS011;3230;42.588;23.358;2023-05-28T09:27:35;5.57;;;4.40;;
6394;SDS011;3230;42.588;23.358;2023-05-28T09:30:04;7.57;;;5.30;;
6394;SDS011;3230;42.588;23.358;2023-05-28T09:32:35;10.73;;;5.30;;
6394;SDS011;3230;42.588;23.358;2023-05-28T09:35:01;7.60;;;5.20;;
6394;SDS011;3230;42.588;23.358;2023-05-28T09:37:29;7.00;;;4.27;;
6394;SDS011;3230;42.588;23.358;2023-05-28T09:40:02;6.30;;;4.97;;
6394;SDS011;3230;42.588;23.358;2023-05-28T09:42:38;6.93;;;4.53;;
6394;SDS011;3230;42.588;23.358;2023-05-28T09:45:06;7.97;;;5.60;;
6394;SDS011;3230;42.588;23.358;2023-05-28T09:47:41;6.30;;;4.70;;
6394;SDS011;3230;42.588;23.358;2023-05-28T09:50:10;4.53;;;3.80;;
6394;SDS011;3230;42.588;23.358;2023-05-28T09:52:37;6.00;;;4.00;;
6394;SDS011;3230;42.588;23.358;2023-05-28T09:55:04;6.57;;;4.47;;
6394;SDS011;3230;42.588;23.358;2023-05-28T09:57:32;5.00;;;3.93;;
6394;SDS011;3230;42.588;23.358;2023-05-28T10:00:01;5.93;;;4.13;;
6394;SDS011;3230;42.588;23.358;2023-05-28T10:05:31;6.33;;;4.13;;
6394;SDS011;3230;42.588;23.358;2023-05-28T10:07:59;6.27;;;4.20;;
6394;SDS011;3230;42.588;23.358;2023-05-28T10:10:26;6.27;;;4.33;;
6394;SDS011;3230;42.588;23.358;2023-05-28T10:12:53;11.17;;;4.43;;
6394;SDS011;3230;42.588;23.358;2023-05-28T10:15:20;5.53;;;3.50;;
6394;SDS011;3230;42.588;23.358;2023-05-28T10:17:46;6.67;;;5.57;;
6394;SDS011;3230;42.588;23.358;2023-05-28T10:20:13;6.70;;;5.03;;
6394;SDS011;3230;42.588;23.358;2023-05-28T10:22:39;18.10;;;12.77;;
6394;SDS011;3230;42.588;23.358;2023-05-28T10:25:06;11.33;;;4.63;;
6394;SDS011;3230;42.588;23.358;2023-05-28T10:27:34;9.17;;;4.93;;
6394;SDS011;3230;42.588;23.358;2023-05-28T10:30:02;7.50;;;4.83;;
6394;SDS011;3230;42.588;23.358;2023-05-28T10:32:29;6.03;;;3.83;;
6394;SDS011;3230;42.588;23.358;2023-05-28T10:35:00;6.70;;;4.50;;
6394;SDS011;3230;42.588;23.358;2023-05-28T10:37:28;9.77;;;5.70;;
6394;SDS011;3230;42.588;23.358;2023-05-28T10:39:53;6.57;;;4.47;;
6394;SDS011;3230;42.588;23.358;2023-05-28T10:42:19;6.90;;;5.00;;
6394;SDS011;3230;42.588;23.358;2023-05-28T10:44:51;6.87;;;5.23;;
6394;SDS011;3230;42.588;23.358;2023-05-28T10:47:33;8.80;;;5.33;;
6394;SDS011;3230;42.588;23.358;2023-05-28T10:50:00;10.53;;;5.67;;
6394;SDS011;3230;42.588;23.358;2023-05-28T10:52:36;6.50;;;5.03;;
6394;SDS011;3230;42.588;23.358;2023-05-28T10:55:02;8.83;;;5.87;;
6394;SDS011;3230;42.588;23.358;2023-05-28T10:57:45;11.03;;;5.47;;
6394;SDS011;3230;42.588;23.358;2023-05-28T11:00:13;7.37;;;5.73;;
6394;SDS011;3230;42.588;23.358;2023-05-28T11:02:47;8.83;;;5.47;;
6394;SDS011;3230;42.588;23.358;2023-05-28T11:05:16;8.40;;;5.60;;
6394;SDS011;3230;42.588;23.358;2023-05-28T11:07:47;7.67;;;5.73;;
6394;SDS011;3230;42.588;23.358;2023-05-28T11:10:14;10.03;;;6.20;;
6394;SDS011;3230;42.588;23.358;2023-05-28T11:12:41;8.83;;;6.13;;
6394;SDS011;3230;42.588;23.358;2023-05-28T11:15:09;8.27;;;5.20;;
6394;SDS011;3230;42.588;23.358;2023-05-28T11:17:39;8.20;;;6.07;;
6394;SDS011;3230;42.588;23.358;2023-05-28T11:20:27;9.30;;;6.30;;
6394;SDS011;3230;42.588;23.358;2023-05-28T11:22:53;8.17;;;5.40;;
6394;SDS011;3230;42.588;23.358;2023-05-28T11:25:20;8.03;;;5.53;;
6394;SDS011;3230;42.588;23.358;2023-05-28T11:27:52;10.53;;;5.27;;
6394;SDS011;3230;42.588;23.358;2023-05-28T11:30:18;6.47;;;5.00;;
6394;SDS011;3230;42.588;23.358;2023-05-28T11:32:45;10.33;;;5.70;;
6394;SDS011;3230;42.588;23.358;2023-05-28T11:35:13;6.20;;;4.80;;
6394;SDS011;3230;42.588;23.358;2023-05-28T11:37:40;7.20;;;5.10;;
6394;SDS011;3230;42.588;23.358;2023-05-28T11:40:07;8.10;;;5.90;;
6394;SDS011;3230;42.588;23.358;2023-05-28T11:42:35;7.10;;;5.40;;
6394;SDS011;3230;42.588;23.358;2023-05-28T11:45:02;6.50;;;5.33;;
6394;SDS011;3230;42.588;23.358;2023-05-28T11:47:31;8.27;;;5.30;;
6394;SDS011;3230;42.588;23.358;2023-05-28T11:49:57;7.37;;;5.10;;
6394;SDS011;3230;42.588;23.358;2023-05-28T11:52:23;10.13;;;5.40;;
6394;SDS011;3230;42.588;23.358;2023-05-28T11:54:56;7.37;;;4.47;;
6394;SDS011;3230;42.588;23.358;2023-05-28T11:57:26;6.93;;;4.77;;
6394;SDS011;3230;42.588;23.358;2023-05-28T12:02:28;9.20;;;5.67;;
6394;SDS011;3230;42.588;23.358;2023-05-28T12:05:00;7.70;;;6.07;;
6394;SDS011;3230;42.588;23.358;2023-05-28T12:07:28;6.70;;;5.37;;
6394;SDS011;3230;42.588;23.358;2023-05-28T12:10:03;8.97;;;5.93;;
6394;SDS011;3230;42.588;23.358;2023-05-28T12:12:42;8.30;;;5.87;;
6394;SDS011;3230;42.588;23.358;2023-05-28T12:15:09;10.23;;;6.60;;
6394;SDS011;3230;42.588;23.358;2023-05-28T12:17:38;10.00;;;6.57;;
6394;SDS011;3230;42.588;23.358;2023-05-28T12:25:45;14.23;;;9.30;;
6394;SDS011;3230;42.588;23.358;2023-05-28T12:28:22;10.57;;;7.27;;
6394;SDS011;3230;42.588;23.358;2023-05-28T12:30:49;11.27;;;8.80;;
6394;SDS011;3230;42.588;23.358;2023-05-28T12:33:17;11.63;;;7.77;;
6394;SDS011;3230;42.588;23.358;2023-05-28T12:35:43;10.10;;;7.83;;
6394;SDS011;3230;42.588;23.358;2023-05-28T12:38:09;10.83;;;8.33;;
6394;SDS011;3230;42.588;23.358;2023-05-28T12:40:34;12.80;;;8.53;;
6394;SDS011;3230;42.588;23.358;2023-05-28T12:43:00;9.97;;;7.70;;
6394;SDS011;3230;42.588;23.358;2023-05-28T12:45:27;14.03;;;7.70;;
6394;SDS011;3230;42.588;23.358;2023-05-28T12:47:52;10.87;;;8.30;;
6394;SDS011;3230;42.588;23.358;2023-05-28T12:50:19;13.07;;;9.13;;
6394;SDS011;3230;42.588;23.358;2023-05-28T12:52:48;11.00;;;8.80;;
6394;SDS011;3230;42.588;23.358;2023-05-28T12:55:15;12.40;;;8.33;;
6394;SDS011;3230;42.588;23.358;2023-05-28T12:57:40;13.60;;;8.70;;
6394;SDS011;3230;42.588;23.358;2023-05-28T13:00:06;10.97;;;8.10;;
6394;SDS011;3230;42.588;23.358;2023-05-28T13:02:35;10.60;;;7.50;;
6394;SDS011;3230;42.588;23.358;2023-05-28T13:05:01;13.53;;;10.20;;
6394;SDS011;3230;42.588;23.358;2023-05-28T13:07:28;13.93;;;9.40;;
6394;SDS011;3230;42.588;23.358;2023-05-28T13:09:53;11.87;;;9.20;;
6394;SDS011;3230;42.588;23.358;2023-05-28T13:12:19;10.70;;;8.07;;
6394;SDS011;3230;42.588;23.358;2023-05-28T13:14:44;11.67;;;7.70;;
6394;SDS011;3230;42.588;23.358;2023-05-28T13:17:09;11.93;;;7.77;;
6394;SDS011;3230;42.588;23.358;2023-05-28T13:19:35;10.80;;;7.67;;
6394;SDS011;3230;42.588;23.358;2023-05-28T13:22:01;9.93;;;7.50;;
6394;SDS011;3230;42.588;23.358;2023-05-28T13:24:26;11.53;;;7.40;;
6394;SDS011;3230;42.588;23.358;2023-05-28T13:26:52;10.20;;;6.80;;
6394;SDS011;3230;42.588;23.358;2023-05-28T13:29:17;11.60;;;6.87;;
6394;SDS011;3230;42.588;23.358;2023-05-28T13:31:43;10.93;;;6.43;;
6394;SDS011;3230;42.588;23.358;2023-05-28T13:34:08;7.90;;;5.70;;
6394;SDS011;3230;42.588;23.358;2023-05-28T13:36:34;8.60;;;4.73;;
6394;SDS011;3230;42.588;23.358;2023-05-28T13:38:59;6.63;;;5.20;;
6394;SDS011;3230;42.588;23.358;2023-05-28T13:41:25;8.00;;;5.57;;
6394;SDS011;3230;42.588;23.358;2023-05-28T13:43:51;7.33;;;3.97;;
6394;SDS011;3230;42.588;23.358;2023-05-28T13:46:19;5.50;;;4.33;;
6394;SDS011;3230;42.588;23.358;2023-05-28T13:48:45;7.03;;;4.63;;
6394;SDS011;3230;42.588;23.358;2023-05-28T13:51:10;5.73;;;4.60;;
6394;SDS011;3230;42.588;23.358;2023-05-28T13:53:37;4.73;;;4.20;;
6394;SDS011;3230;42.588;23.358;2023-05-28T13:56:03;6.43;;;4.40;;
6394;SDS011;3230;42.588;23.358;2023-05-28T13:58:29;8.20;;;6.20;;
6394;SDS011;3230;42.588;23.358;2023-05-28T14:00:54;6.17;;;4.30;;
6394;SDS011;3230;42.588;23.358;2023-05-28T14:03:20;6.30;;;4.53;;
6394;SDS011;3230;42.588;23.358;2023-05-28T14:05:45;5.47;;;4.67;;
6394;SDS011;3230;42.588;23.358;2023-05-28T14:08:11;5.77;;;4.60;;
6394;SDS011;3230;42.588;23.358;2023-05-28T14:10:37;5.90;;;5.30;;
6394;SDS011;3230;42.588;23.358;2023-05-28T14:13:02;6.43;;;5.50;;
6394;SDS011;3230;42.588;23.358;2023-05-28T14:15:28;8.97;;;4.73;;
6394;SDS011;3230;42.588;23.358;2023-05-28T14:17:53;6.60;;;4.70;;
6394;SDS011;3230;42.588;23.358;2023-05-28T14:20:19;7.23;;;5.13;;
6394;SDS011;3230;42.588;23.358;2023-05-28T14:22:44;10.37;;;4.50;;
6394;SDS011;3230;42.588;23.358;2023-05-28T14:25:10;7.10;;;5.20;;
6394;SDS011;3230;42.588;23.358;2023-05-28T14:27:37;5.60;;;4.93;;
6394;SDS011;3230;42.588;23.358;2023-05-28T14:30:03;6.43;;;4.93;;
6394;SDS011;3230;42.588;23.358;2023-05-28T14:32:30;7.50;;;5.00;;
6394;SDS011;3230;42.588;23.358;2023-05-28T14:34:55;8.33;;;5.00;;
6394;SDS011;3230;42.588;23.358;2023-05-28T14:37:21;6.47;;;5.10;;
6394;SDS011;3230;42.588;23.358;2023-05-28T14:39:46;5.87;;;5.27;;
6394;SDS011;3230;42.588;23.358;2023-05-28T14:42:12;6.60;;;5.27;;
6394;SDS011;3230;42.588;23.358;2023-05-28T14:44:37;6.40;;;4.67;;
6394;SDS011;3230;42.588;23.358;2023-05-28T14:47:03;7.87;;;5.07;;
6394;SDS011;3230;42.588;23.358;2023-05-28T14:49:29;7.63;;;5.07;;
6394;SDS011;3230;42.588;23.358;2023-05-28T14:51:55;6.33;;;4.73;;
6394;SDS011;3230;42.588;23.358;2023-05-28T14:54:22;8.37;;;5.80;;
6394;SDS011;3230;42.588;23.358;2023-05-28T14:56:47;7.10;;;4.77;;
6394;SDS011;3230;42.588;23.358;2023-05-28T14:59:13;5.07;;;4.57;;
6394;SDS011;3230;42.588;23.358;2023-05-28T15:01:38;5.80;;;4.87;;
6394;SDS011;3230;42.588;23.358;2023-05-28T15:04:04;5.80;;;4.80;;
6394;SDS011;3230;42.588;23.358;2023-05-28T15:06:30;9.90;;;5.23;;
6394;SDS011;3230;42.588;23.358;2023-05-28T15:08:57;5.90;;;5.30;;